sensor_id;sensor_type;location;lat;lon;timestamp;pressure;altitude;pressure_sealevel;temperature;humidity
10176;BME280;18221;38.704;0.152;2023-04-29T00:04:15;98650.00;;;26.95;21.80
10176;BME280;18221;38.704;0.152;2023-04-29T00:06:43;98652.94;;;26.94;22.19
10176;BME280;18221;38.704;0.152;2023-04-29T00:09:14;98658.16;;;26.95;22.05
10176;BME280;18221;38.704;0.152;2023-04-29T00:12:05;98686.44;;;27.11;21.64
10176;BME280;18221;38.704;0.152;2023-04-29T00:14:34;98675.91;;;26.98;22.13
10176;BME280;18221;38.704;0.152;2023-04-29T00:17:02;98675.66;;;27.00;22.68
10176;BME280;18221;38.704;0.152;2023-04-29T00:19:38;98686.75;;;26.93;23.50
10176;BME280;18221;38.704;0.152;2023-04-29T00:22:09;98705.56;;;26.94;24.74
10176;BME280;18221;38.704;0.152;2023-04-29T00:24:37;98698.66;;;26.87;25.15
10176;BME280;18221;38.704;0.152;2023-04-29T00:27:06;98719.38;;;26.71;26.42
10176;BME280;18221;38.704;0.152;2023-04-29T00:29:35;98753.63;;;26.84;27.05
10176;BME280;18221;38.704;0.152;2023-04-29T00:32:04;98790.72;;;26.85;30.07
10176;BME280;18221;38.704;0.152;2023-04-29T00:34:41;98785.56;;;26.72;34.02
10176;BME280;18221;38.704;0.152;2023-04-29T00:37:10;98784.09;;;26.64;35.02
10176;BME280;18221;38.704;0.152;2023-04-29T00:39:38;98740.03;;;26.51;36.87
10176;BME280;18221;38.704;0.152;2023-04-29T00:42:08;98691.16;;;26.11;37.48
10176;BME280;18221;38.704;0.152;2023-04-29T00:44:37;98624.19;;;25.76;34.75
10176;BME280;18221;38.704;0.152;2023-04-29T00:47:07;98601.38;;;25.33;36.44
10176;BME280;18221;38.704;0.152;2023-04-29T00:49:40;98656.09;;;24.96;36.33
10176;BME280;18221;38.704;0.152;2023-04-29T00:52:10;98629.78;;;24.74;36.05
10176;BME280;18221;38.704;0.152;2023-04-29T00:54:44;98608.91;;;24.63;34.60
10176;BME280;18221;38.704;0.152;2023-04-29T00:57:15;98609.16;;;24.61;34.26
10176;BME280;18221;38.704;0.152;2023-04-29T00:59:44;98581.38;;;24.71;34.04
10176;BME280;18221;38.704;0.152;2023-04-29T01:02:14;98554.22;;;24.71;32.01
10176;BME280;18221;38.704;0.152;2023-04-29T01:04:45;98523.63;;;24.75;32.14
10176;BME280;18221;38.704;0.152;2023-04-29T01:07:17;98507.59;;;24.74;30.43
10176;BME280;18221;38.704;0.152;2023-04-29T01:10:02;98508.91;;;24.99;29.25
10176;BME280;18221;38.704;0.152;2023-04-29T01:12:44;98501.88;;;25.15;29.34
10176;BME280;18221;38.704;0.152;2023-04-29T01:15:24;98476.84;;;25.13;27.75
10176;BME280;18221;38.704;0.152;2023-04-29T01:17:59;98468.13;;;25.44;25.86
10176;BME280;18221;38.704;0.152;2023-04-29T01:20:33;98473.06;;;25.64;23.87
10176;BME280;18221;38.704;0.152;2023-04-29T01:23:03;98495.22;;;25.72;25.01
10176;BME280;18221;38.704;0.152;2023-04-29T01:25:33;98501.09;;;25.64;24.91
10176;BME280;18221;38.704;0.152;2023-04-29T01:28:13;98518.88;;;25.89;25.24
10176;BME280;18221;38.704;0.152;2023-04-29T01:30:56;98535.97;;;26.06;26.65
10176;BME280;18221;38.704;0.152;2023-04-29T01:33:39;98541.59;;;25.99;29.62
10176;BME280;18221;38.704;0.152;2023-04-29T01:36:21;98538.88;;;25.99;30.28
10176;BME280;18221;38.704;0.152;2023-04-29T01:39:08;98556.28;;;25.98;29.34
10176;BME280;18221;38.704;0.152;2023-04-29T01:41:52;98572.19;;;26.06;29.23
10176;BME280;18221;38.704;0.152;2023-04-29T01:44:28;98574.25;;;25.83;30.94
10176;BME280;18221;38.704;0.152;2023-04-29T01:47:00;98569.88;;;25.48;32.75
10176;BME280;18221;38.704;0.152;2023-04-29T01:49:30;98564.28;;;25.55;31.07
10176;BME280;18221;38.704;0.152;2023-04-29T01:52:03;98564.28;;;25.71;29.60
10176;BME280;18221;38.704;0.152;2023-04-29T01:54:31;98562.38;;;25.89;30.38
10176;BME280;18221;38.704;0.152;2023-04-29T01:57:03;98563.38;;;25.99;29.73
10176;BME280;18221;38.704;0.152;2023-04-29T01:59:32;98576.38;;;25.97;29.34
10176;BME280;18221;38.704;0.152;2023-04-29T02:02:04;98600.22;;;26.07;30.05
10176;BME280;18221;38.704;0.152;2023-04-29T02:04:37;98622.56;;;26.09;30.33
10176;BME280;18221;38.704;0.152;2023-04-29T02:07:13;98665.84;;;25.94;33.70
10176;BME280;18221;38.704;0.152;2023-04-29T02:09:41;98691.63;;;25.46;39.79
10176;BME280;18221;38.704;0.152;2023-04-29T02:12:12;98708.06;;;24.88;41.48
10176;BME280;18221;38.704;0.152;2023-04-29T02:14:44;98717.63;;;24.68;40.88
10176;BME280;18221;38.704;0.152;2023-04-29T02:17:14;98735.09;;;24.60;40.45
10176;BME280;18221;38.704;0.152;2023-04-29T02:19:43;98770.16;;;24.73;38.88
10176;BME280;18221;38.704;0.152;2023-04-29T02:22:11;98758.22;;;24.63;36.77
10176;BME280;18221;38.704;0.152;2023-04-29T02:24:41;98774.75;;;24.73;34.69
10176;BME280;18221;38.704;0.152;2023-04-29T02:27:11;98802.91;;;24.78;34.84
10176;BME280;18221;38.704;0.152;2023-04-29T02:29:42;98745.72;;;24.85;33.42
10176;BME280;18221;38.704;0.152;2023-04-29T02:32:10;98721.97;;;25.03;31.33
10176;BME280;18221;38.704;0.152;2023-04-29T02:34:41;98698.19;;;25.22;32.34
10176;BME280;18221;38.704;0.152;2023-04-29T02:37:13;98682.16;;;25.37;30.32
10176;BME280;18221;38.704;0.152;2023-04-29T02:39:42;98650.72;;;25.41;29.43
10176;BME280;18221;38.704;0.152;2023-04-29T02:42:12;98652.53;;;25.64;28.53
10176;BME280;18221;38.704;0.152;2023-04-29T02:44:43;98631.88;;;25.80;27.96
10176;BME280;18221;38.704;0.152;2023-04-29T02:47:11;98663.91;;;25.94;27.70
10176;BME280;18221;38.704;0.152;2023-04-29T02:49:42;98682.25;;;25.99;27.31
10176;BME280;18221;38.704;0.152;2023-04-29T02:52:10;98656.09;;;25.98;26.90
10176;BME280;18221;38.704;0.152;2023-04-29T02:54:40;98605.41;;;25.92;26.13
10176;BME280;18221;38.704;0.152;2023-04-29T02:57:15;98610.84;;;26.08;26.40
10176;BME280;18221;38.704;0.152;2023-04-29T02:59:47;98561.53;;;26.21;25.63
10176;BME280;18221;38.704;0.152;2023-04-29T03:02:23;98548.47;;;26.40;27.28
10176;BME280;18221;38.704;0.152;2023-04-29T03:04:52;98527.56;;;26.46;26.20
10176;BME280;18221;38.704;0.152;2023-04-29T03:07:21;98551.88;;;26.74;28.17
10176;BME280;18221;38.704;0.152;2023-04-29T03:09:52;98485.34;;;26.91;27.99
10176;BME280;18221;38.704;0.152;2023-04-29T03:31:49;98334.44;;;26.92;26.92
10176;BME280;18221;38.704;0.152;2023-04-29T03:34:18;98331.84;;;27.13;26.18
10176;BME280;18221;38.704;0.152;2023-04-29T03:36:47;98344.16;;;27.62;25.10
10176;BME280;18221;38.704;0.152;2023-04-29T03:39:16;98369.06;;;27.76;24.27
10176;BME280;18221;38.704;0.152;2023-04-29T03:41:47;98384.25;;;28.08;23.72
10176;BME280;18221;38.704;0.152;2023-04-29T03:44:16;98370.34;;;28.10;23.86
10176;BME280;18221;38.704;0.152;2023-04-29T03:46:44;98378.88;;;28.29;23.01
10176;BME280;18221;38.704;0.152;2023-04-29T03:49:15;98379.16;;;28.52;23.76
10176;BME280;18221;38.704;0.152;2023-04-29T03:51:54;98359.81;;;28.59;23.81
10176;BME280;18221;38.704;0.152;2023-04-29T03:54:22;98349.91;;;28.33;24.18
10176;BME280;18221;38.704;0.152;2023-04-29T03:56:54;98342.25;;;28.25;24.20
10176;BME280;18221;38.704;0.152;2023-04-29T03:59:22;98339.00;;;28.33;24.01
10176;BME280;18221;38.704;0.152;2023-04-29T04:01:54;98337.09;;;28.43;23.96
10176;BME280;18221;38.704;0.152;2023-04-29T04:04:32;98360.09;;;28.57;23.83
10176;BME280;18221;38.704;0.152;2023-04-29T04:07:00;98366.63;;;28.56;23.32
10176;BME280;18221;38.704;0.152;2023-04-29T04:09:29;98362.03;;;28.62;23.00
10176;BME280;18221;38.704;0.152;2023-04-29T04:11:59;98367.16;;;28.58;24.55
10176;BME280;18221;38.704;0.152;2023-04-29T04:14:28;98370.72;;;28.49;27.00
10176;BME280;18221;38.704;0.152;2023-04-29T04:20:15;98372.47;;;28.03;29.92
10176;BME280;18221;38.704;0.152;2023-04-29T04:22:44;98378.66;;;27.83;30.30
10176;BME280;18221;38.704;0.152;2023-04-29T04:25:12;98382.97;;;27.74;29.82
10176;BME280;18221;38.704;0.152;2023-04-29T04:27:40;98386.97;;;27.62;29.98
10176;BME280;18221;38.704;0.152;2023-04-29T04:30:10;98389.34;;;27.48;29.95
10176;BME280;18221;38.704;0.152;2023-04-29T04:32:38;98405.44;;;27.44;30.36
10176;BME280;18221;38.704;0.152;2023-04-29T04:35:08;98417.63;;;27.37;30.77
10176;BME280;18221;38.704;0.152;2023-04-29T04:37:37;98402.25;;;27.26;32.29
10176;BME280;18221;38.704;0.152;2023-04-29T04:40:07;98407.34;;;27.12;31.94
10176;BME280;18221;38.704;0.152;2023-04-29T04:42:37;98401.44;;;26.93;32.47
10176;BME280;18221;38.704;0.152;2023-04-29T04:45:06;98394.53;;;26.81;32.82
10176;BME280;18221;38.704;0.152;2023-04-29T04:47:38;98401.25;;;26.73;30.81
10176;BME280;18221;38.704;0.152;2023-04-29T04:50:11;98407.88;;;26.56;31.05
10176;BME280;18221;38.704;0.152;2023-04-29T04:52:41;98413.69;;;26.64;29.87
10176;BME280;18221;38.704;0.152;2023-04-29T04:55:10;98412.09;;;26.68;29.59
10176;BME280;18221;38.704;0.152;2023-04-29T04:57:39;98407.25;;;26.75;29.31
10176;BME280;18221;38.704;0.152;2023-04-29T05:00:08;98411.16;;;26.79;28.81
10176;BME280;18221;38.704;0.152;2023-04-29T05:02:37;98414.00;;;26.94;28.46
10176;BME280;18221;38.704;0.152;2023-04-29T05:05:12;98426.78;;;26.94;28.73
10176;BME280;18221;38.704;0.152;2023-04-29T05:07:41;98428.53;;;27.05;28.25
10176;BME280;18221;38.704;0.152;2023-04-29T05:10:10;98424.06;;;26.94;27.78
10176;BME280;18221;38.704;0.152;2023-04-29T05:12:38;98445.63;;;26.95;27.80
10176;BME280;18221;38.704;0.152;2023-04-29T05:15:08;98454.13;;;27.04;27.05
10176;BME280;18221;38.704;0.152;2023-04-29T05:17:36;98450.50;;;27.25;26.34
10176;BME280;18221;38.704;0.152;2023-04-29T05:20:06;98449.19;;;27.33;25.85
10176;BME280;18221;38.704;0.152;2023-04-29T05:22:35;98459.44;;;27.47;25.89
10176;BME280;18221;38.704;0.152;2023-04-29T05:25:06;98472.94;;;27.69;26.01
10176;BME280;18221;38.704;0.152;2023-04-29T05:27:34;98484.44;;;27.71;26.78
10176;BME280;18221;38.704;0.152;2023-04-29T05:30:03;98489.06;;;27.71;26.10
10176;BME280;18221;38.704;0.152;2023-04-29T05:32:31;98493.97;;;27.69;26.74
10176;BME280;18221;38.704;0.152;2023-04-29T05:35:00;98487.59;;;27.53;27.68
10176;BME280;18221;38.704;0.152;2023-04-29T05:37:28;98484.31;;;27.56;27.45
10176;BME280;18221;38.704;0.152;2023-04-29T05:39:57;98478.22;;;27.44;27.62
10176;BME280;18221;38.704;0.152;2023-04-29T05:42:27;98479.22;;;27.38;28.04
10176;BME280;18221;38.704;0.152;2023-04-29T05:44:55;98482.56;;;27.40;27.95
10176;BME280;18221;38.704;0.152;2023-04-29T05:47:24;98479.31;;;27.43;27.71
10176;BME280;18221;38.704;0.152;2023-04-29T05:49:52;98472.84;;;27.54;27.28
10176;BME280;18221;38.704;0.152;2023-04-29T05:52:21;98466.94;;;27.67;26.78
10176;BME280;18221;38.704;0.152;2023-04-29T05:54:49;98469.69;;;27.72;26.72
10176;BME280;18221;38.704;0.152;2023-04-29T05:57:18;98468.03;;;27.66;26.67
10176;BME280;18221;38.704;0.152;2023-04-29T05:59:48;98478.31;;;27.54;27.49
10176;BME280;18221;38.704;0.152;2023-04-29T06:02:19;98473.84;;;27.43;28.29
10176;BME280;18221;38.704;0.152;2023-04-29T06:04:48;98485.22;;;27.35;28.49
10176;BME280;18221;38.704;0.152;2023-04-29T06:07:17;98482.50;;;27.35;28.66
10176;BME280;18221;38.704;0.152;2023-04-29T06:09:45;98490.47;;;27.41;28.53
10176;BME280;18221;38.704;0.152;2023-04-29T06:12:17;98478.75;;;27.41;28.86
10176;BME280;18221;38.704;0.152;2023-04-29T06:14:58;98476.06;;;27.46;28.60
10176;BME280;18221;38.704;0.152;2023-04-29T06:17:26;98472.91;;;27.64;28.55
10176;BME280;18221;38.704;0.152;2023-04-29T06:19:55;98479.03;;;27.76;29.08
10176;BME280;18221;38.704;0.152;2023-04-29T06:22:23;98484.53;;;27.86;28.89
10176;BME280;18221;38.704;0.152;2023-04-29T06:24:52;98484.88;;;27.95;29.11
10176;BME280;18221;38.704;0.152;2023-04-29T06:27:20;98480.59;;;28.09;29.29
10176;BME280;18221;38.704;0.152;2023-04-29T06:29:49;98482.09;;;27.90;30.13
10176;BME280;18221;38.704;0.152;2023-04-29T06:32:19;98469.44;;;27.69;30.72
10176;BME280;18221;38.704;0.152;2023-04-29T06:34:47;98474.06;;;27.68;30.89
10176;BME280;18221;38.704;0.152;2023-04-29T06:37:15;98486.09;;;27.77;30.59
10176;BME280;18221;38.704;0.152;2023-04-29T06:39:47;98480.84;;;27.66;31.20
10176;BME280;18221;38.704;0.152;2023-04-29T06:42:15;98470.16;;;27.59;31.44
10176;BME280;18221;38.704;0.152;2023-04-29T06:44:44;98486.75;;;27.52;31.98
10176;BME280;18221;38.704;0.152;2023-04-29T06:47:13;98470.84;;;27.39;32.02
10176;BME280;18221;38.704;0.152;2023-04-29T06:49:56;98478.69;;;27.68;31.42
10176;BME280;18221;38.704;0.152;2023-04-29T06:52:24;98479.91;;;27.87;30.77
10176;BME280;18221;38.704;0.152;2023-04-29T06:54:52;98492.56;;;28.03;30.56
10176;BME280;18221;38.704;0.152;2023-04-29T06:57:21;98501.28;;;28.00;31.43
10176;BME280;18221;38.704;0.152;2023-04-29T06:59:51;98495.63;;;28.11;31.01
10176;BME280;18221;38.704;0.152;2023-04-29T07:02:20;98494.03;;;28.15;30.93
10176;BME280;18221;38.704;0.152;2023-04-29T07:04:48;98511.00;;;28.28;30.72
10176;BME280;18221;38.704;0.152;2023-04-29T07:07:19;98509.13;;;28.33;30.66
10176;BME280;18221;38.704;0.152;2023-04-29T07:09:48;98507.75;;;28.31;31.03
10176;BME280;18221;38.704;0.152;2023-04-29T07:12:21;98516.88;;;28.04;31.31
10176;BME280;18221;38.704;0.152;2023-04-29T07:14:49;98532.09;;;28.00;31.42
10176;BME280;18221;38.704;0.152;2023-04-29T07:17:17;98515.97;;;27.57;32.73
10176;BME280;18221;38.704;0.152;2023-04-29T07:19:46;98530.41;;;27.52;32.76
10176;BME280;18221;38.704;0.152;2023-04-29T07:22:22;98540.25;;;27.58;33.04
10176;BME280;18221;38.704;0.152;2023-04-29T07:24:55;98558.59;;;27.63;33.43
10176;BME280;18221;38.704;0.152;2023-04-29T07:27:24;98554.38;;;27.50;34.52
10176;BME280;18221;38.704;0.152;2023-04-29T07:29:53;98563.28;;;27.41;34.83
10176;BME280;18221;38.704;0.152;2023-04-29T07:32:22;98566.69;;;27.53;35.13
10176;BME280;18221;38.704;0.152;2023-04-29T07:34:50;98565.50;;;27.76;34.56
10176;BME280;18221;38.704;0.152;2023-04-29T07:37:19;98569.56;;;27.73;34.53
10176;BME280;18221;38.704;0.152;2023-04-29T07:39:48;98572.47;;;27.62;35.03
10176;BME280;18221;38.704;0.152;2023-04-29T07:42:18;98569.00;;;27.39;35.41
10176;BME280;18221;38.704;0.152;2023-04-29T07:44:47;98570.03;;;27.12;35.46
10176;BME280;18221;38.704;0.152;2023-04-29T07:47:21;98565.22;;;27.19;35.50
10176;BME280;18221;38.704;0.152;2023-04-29T07:49:52;98560.41;;;27.04;36.11
10176;BME280;18221;38.704;0.152;2023-04-29T07:52:22;98562.41;;;27.09;36.01
10176;BME280;18221;38.704;0.152;2023-04-29T07:54:51;98565.66;;;27.64;35.04
10176;BME280;18221;38.704;0.152;2023-04-29T07:57:23;98562.78;;;28.12;33.80
10176;BME280;18221;38.704;0.152;2023-04-29T07:59:53;98568.91;;;28.82;32.14
10176;BME280;18221;38.704;0.152;2023-04-29T08:02:21;98569.09;;;29.72;31.25
10176;BME280;18221;38.704;0.152;2023-04-29T08:04:50;98565.22;;;30.49;29.35
10176;BME280;18221;38.704;0.152;2023-04-29T08:07:19;98562.00;;;31.01;27.79
10176;BME280;18221;38.704;0.152;2023-04-29T08:09:49;98563.38;;;31.42;26.61
10176;BME280;18221;38.704;0.152;2023-04-29T08:12:17;98580.47;;;31.73;25.64
10176;BME280;18221;38.704;0.152;2023-04-29T08:14:48;98580.06;;;31.56;25.25
10176;BME280;18221;38.704;0.152;2023-04-29T08:17:19;98571.94;;;31.36;25.53
10176;BME280;18221;38.704;0.152;2023-04-29T08:19:48;98570.38;;;31.25;25.72
10176;BME280;18221;38.704;0.152;2023-04-29T08:30:06;98555.69;;;31.00;27.13
10176;BME280;18221;38.704;0.152;2023-04-29T08:32:35;98563.94;;;30.90;27.37
10176;BME280;18221;38.704;0.152;2023-04-29T08:35:04;98557.97;;;30.78;27.41
10176;BME280;18221;38.704;0.152;2023-04-29T08:37:33;98568.94;;;30.78;27.85
10176;BME280;18221;38.704;0.152;2023-04-29T08:40:09;98561.34;;;30.60;28.12
10176;BME280;18221;38.704;0.152;2023-04-29T08:42:38;98563.28;;;30.54;28.28
10176;BME280;18221;38.704;0.152;2023-04-29T08:45:09;98564.16;;;30.45;27.67
10176;BME280;18221;38.704;0.152;2023-04-29T08:47:45;98560.25;;;30.51;27.54
10176;BME280;18221;38.704;0.152;2023-04-29T08:50:15;98572.63;;;30.33;27.70
10176;BME280;18221;38.704;0.152;2023-04-29T08:52:44;98581.38;;;30.30;27.37
10176;BME280;18221;38.704;0.152;2023-04-29T08:55:12;98593.75;;;30.13;28.18
10176;BME280;18221;38.704;0.152;2023-04-29T08:57:45;98589.91;;;30.24;28.12
10176;BME280;18221;38.704;0.152;2023-04-29T09:00:19;98584.13;;;30.25;28.64
10176;BME280;18221;38.704;0.152;2023-04-29T09:02:50;98579.78;;;30.29;28.32
10176;BME280;18221;38.704;0.152;2023-04-29T09:05:21;98578.41;;;30.37;28.88
10176;BME280;18221;38.704;0.152;2023-04-29T09:07:52;98595.13;;;30.15;29.68
10176;BME280;18221;38.704;0.152;2023-04-29T09:10:25;98576.47;;;30.22;29.88
10176;BME280;18221;38.704;0.152;2023-04-29T09:12:56;98565.22;;;30.34;29.41
10176;BME280;18221;38.704;0.152;2023-04-29T09:15:27;98579.78;;;30.14;30.30
10176;BME280;18221;38.704;0.152;2023-04-29T09:17:56;98575.16;;;29.89;30.67
10176;BME280;18221;38.704;0.152;2023-04-29T09:20:31;98584.72;;;30.02;30.51
10176;BME280;18221;38.704;0.152;2023-04-29T09:23:02;98580.34;;;30.01;30.96
10176;BME280;18221;38.704;0.152;2023-04-29T09:25:31;98591.81;;;29.63;31.36
10176;BME280;18221;38.704;0.152;2023-04-29T09:28:14;98587.41;;;29.36;32.39
10176;BME280;18221;38.704;0.152;2023-04-29T09:30:48;98581.41;;;29.40;31.66
10176;BME280;18221;38.704;0.152;2023-04-29T09:33:16;98575.69;;;29.51;30.08
10176;BME280;18221;38.704;0.152;2023-04-29T09:35:45;98561.19;;;29.66;29.72
10176;BME280;18221;38.704;0.152;2023-04-29T09:38:15;98565.28;;;29.48;29.24
10176;BME280;18221;38.704;0.152;2023-04-29T09:40:45;98559.53;;;29.55;28.89
10176;BME280;18221;38.704;0.152;2023-04-29T09:43:30;98564.44;;;29.53;28.83
10176;BME280;18221;38.704;0.152;2023-04-29T09:46:01;98564.97;;;29.24;28.88
10176;BME280;18221;38.704;0.152;2023-04-29T09:48:32;98565.81;;;29.55;29.01
10176;BME280;18221;38.704;0.152;2023-04-29T09:51:02;98568.31;;;29.62;28.76
10176;BME280;18221;38.704;0.152;2023-04-29T09:53:34;98567.72;;;29.70;28.96
10176;BME280;18221;38.704;0.152;2023-04-29T09:56:09;98567.72;;;29.40;29.97
10176;BME280;18221;38.704;0.152;2023-04-29T09:58:38;98571.53;;;29.38;29.50
10176;BME280;18221;38.704;0.152;2023-04-29T10:01:09;98567.16;;;29.22;29.67
10176;BME280;18221;38.704;0.152;2023-04-29T10:03:40;98571.28;;;29.30;29.70
10176;BME280;18221;38.704;0.152;2023-04-29T10:06:11;98560.06;;;29.36;29.37
10176;BME280;18221;38.704;0.152;2023-04-29T10:08:41;98546.94;;;29.54;28.81
10176;BME280;18221;38.704;0.152;2023-04-29T10:11:11;98545.00;;;29.44;28.77
10176;BME280;18221;38.704;0.152;2023-04-29T10:13:42;98545.84;;;29.50;27.99
10176;BME280;18221;38.704;0.152;2023-04-29T10:16:27;98539.00;;;29.32;26.74
10176;BME280;18221;38.704;0.152;2023-04-29T10:19:02;98543.03;;;29.04;26.77
10176;BME280;18221;38.704;0.152;2023-04-29T10:21:33;98523.06;;;28.99;26.74
10176;BME280;18221;38.704;0.152;2023-04-29T10:24:03;98524.44;;;29.06;27.62
10176;BME280;18221;38.704;0.152;2023-04-29T10:26:33;98528.31;;;29.25;27.54
10176;BME280;18221;38.704;0.152;2023-04-29T10:29:06;98518.47;;;29.45;27.83
10176;BME280;18221;38.704;0.152;2023-04-29T10:31:39;98508.09;;;29.72;27.28
10176;BME280;18221;38.704;0.152;2023-04-29T10:34:09;98498.78;;;29.98;27.22
10176;BME280;18221;38.704;0.152;2023-04-29T10:36:39;98488.59;;;30.14;26.43
10176;BME280;18221;38.704;0.152;2023-04-29T10:39:20;98479.25;;;30.20;25.13
10176;BME280;18221;38.704;0.152;2023-04-29T10:42:16;98473.38;;;30.56;24.88
10176;BME280;18221;38.704;0.152;2023-04-29T10:45:24;98478.13;;;30.90;25.09
10176;BME280;18221;38.704;0.152;2023-04-29T10:48:15;98481.59;;;31.10;24.02
10176;BME280;18221;38.704;0.152;2023-04-29T10:51:02;98489.81;;;31.10;25.07
10176;BME280;18221;38.704;0.152;2023-04-29T10:53:31;98486.69;;;31.27;24.81
10176;BME280;18221;38.704;0.152;2023-04-29T10:56:07;98487.94;;;31.06;25.02
10176;BME280;18221;38.704;0.152;2023-04-29T10:58:42;98484.66;;;31.04;24.19
10176;BME280;18221;38.704;0.152;2023-04-29T11:01:14;98492.88;;;31.43;24.62
10176;BME280;18221;38.704;0.152;2023-04-29T11:03:53;98478.06;;;31.77;24.07
10176;BME280;18221;38.704;0.152;2023-04-29T11:06:37;98475.09;;;31.69;25.48
10176;BME280;18221;38.704;0.152;2023-04-29T11:09:11;98471.22;;;32.04;24.48
10176;BME280;18221;38.704;0.152;2023-04-29T11:11:46;98478.91;;;32.25;24.13
10176;BME280;18221;38.704;0.152;2023-04-29T11:14:22;98471.69;;;32.11;23.36
10176;BME280;18221;38.704;0.152;2023-04-29T11:16:56;98472.31;;;32.03;24.72
10176;BME280;18221;38.704;0.152;2023-04-29T11:19:31;98467.41;;;32.00;25.71
10176;BME280;18221;38.704;0.152;2023-04-29T11:22:25;98456.41;;;32.00;26.23
10176;BME280;18221;38.704;0.152;2023-04-29T11:24:57;98458.13;;;31.67;25.64
10176;BME280;18221;38.704;0.152;2023-04-29T11:27:30;98469.19;;;31.57;25.72
10176;BME280;18221;38.704;0.152;2023-04-29T11:30:00;98460.03;;;31.66;25.93
10176;BME280;18221;38.704;0.152;2023-04-29T11:32:31;98458.78;;;31.54;24.52
10176;BME280;18221;38.704;0.152;2023-04-29T11:35:13;98446.88;;;31.63;25.56
10176;BME280;18221;38.704;0.152;2023-04-29T11:37:43;98433.34;;;31.72;24.53
10176;BME280;18221;38.704;0.152;2023-04-29T11:40:13;98438.50;;;31.78;24.04
10176;BME280;18221;38.704;0.152;2023-04-29T11:42:45;98426.00;;;31.67;23.83
10176;BME280;18221;38.704;0.152;2023-04-29T11:45:16;98439.31;;;31.79;23.36
10176;BME280;18221;38.704;0.152;2023-04-29T11:47:46;98434.00;;;31.88;23.07
10176;BME280;18221;38.704;0.152;2023-04-29T11:50:17;98435.88;;;31.92;22.89
10176;BME280;18221;38.704;0.152;2023-04-29T11:52:48;98422.81;;;32.08;23.59
10176;BME280;18221;38.704;0.152;2023-04-29T11:55:29;98413.94;;;32.16;22.72
10176;BME280;18221;38.704;0.152;2023-04-29T11:57:58;98412.97;;;32.25;21.45
10176;BME280;18221;38.704;0.152;2023-04-29T12:00:26;98420.44;;;32.44;21.31
10176;BME280;18221;38.704;0.152;2023-04-29T12:02:55;98419.38;;;32.63;21.22
10176;BME280;18221;38.704;0.152;2023-04-29T12:05:25;98407.72;;;32.90;21.63
10176;BME280;18221;38.704;0.152;2023-04-29T12:07:54;98407.50;;;32.86;20.75
10176;BME280;18221;38.704;0.152;2023-04-29T12:10:23;98406.59;;;32.91;21.11
10176;BME280;18221;38.704;0.152;2023-04-29T12:12:51;98401.09;;;33.10;20.73
10176;BME280;18221;38.704;0.152;2023-04-29T12:15:20;98392.22;;;33.31;20.44
10176;BME280;18221;38.704;0.152;2023-04-29T12:18:00;98402.31;;;33.36;19.32
10176;BME280;18221;38.704;0.152;2023-04-29T12:20:31;98400.31;;;33.23;19.00
10176;BME280;18221;38.704;0.152;2023-04-29T12:23:11;98401.41;;;33.54;20.57
10176;BME280;18221;38.704;0.152;2023-04-29T12:25:40;98405.97;;;33.77;21.89
10176;BME280;18221;38.704;0.152;2023-04-29T12:28:12;98396.78;;;33.95;22.11
10176;BME280;18221;38.704;0.152;2023-04-29T12:30:43;98398.84;;;34.03;21.16
10176;BME280;18221;38.704;0.152;2023-04-29T12:33:17;98398.25;;;34.20;22.24
10176;BME280;18221;38.704;0.152;2023-04-29T12:35:49;98407.84;;;34.23;23.98
10176;BME280;18221;38.704;0.152;2023-04-29T12:38:22;98400.69;;;34.22;22.19
10176;BME280;18221;38.704;0.152;2023-04-29T12:40:54;98406.03;;;34.18;23.76
10176;BME280;18221;38.704;0.152;2023-04-29T12:43:27;98421.75;;;34.18;24.59
10176;BME280;18221;38.704;0.152;2023-04-29T12:46:01;98428.25;;;34.08;23.48
10176;BME280;18221;38.704;0.152;2023-04-29T12:48:31;98411.28;;;33.74;24.17
10176;BME280;18221;38.704;0.152;2023-04-29T12:51:02;98391.63;;;33.48;23.99
10176;BME280;18221;38.704;0.152;2023-04-29T12:53:31;98400.38;;;33.36;23.77
10176;BME280;18221;38.704;0.152;2023-04-29T12:56:00;98419.75;;;33.13;23.61
10176;BME280;18221;38.704;0.152;2023-04-29T12:58:29;98413.81;;;33.06;24.61
10176;BME280;18221;38.704;0.152;2023-04-29T13:00:58;98412.75;;;33.20;24.31
10176;BME280;18221;38.704;0.152;2023-04-29T13:03:27;98413.91;;;33.33;23.73
10176;BME280;18221;38.704;0.152;2023-04-29T13:05:56;98414.41;;;33.35;24.75
10176;BME280;18221;38.704;0.152;2023-04-29T13:08:26;98406.06;;;33.40;24.16
10176;BME280;18221;38.704;0.152;2023-04-29T13:10:57;98399.38;;;33.46;23.67
10176;BME280;18221;38.704;0.152;2023-04-29T13:13:25;98405.91;;;33.50;25.14
10176;BME280;18221;38.704;0.152;2023-04-29T13:15:54;98398.53;;;33.45;22.83
10176;BME280;18221;38.704;0.152;2023-04-29T13:18:23;98401.75;;;33.52;22.30
10176;BME280;18221;38.704;0.152;2023-04-29T13:20:51;98398.81;;;33.63;21.09
10176;BME280;18221;38.704;0.152;2023-04-29T13:23:19;98404.22;;;33.68;22.74
10176;BME280;18221;38.704;0.152;2023-04-29T13:25:51;98397.09;;;33.80;24.02
10176;BME280;18221;38.704;0.152;2023-04-29T13:28:20;98403.25;;;34.04;22.70
10176;BME280;18221;38.704;0.152;2023-04-29T13:30:49;98395.19;;;34.22;20.79
10176;BME280;18221;38.704;0.152;2023-04-29T13:33:21;98393.34;;;34.17;20.07
10176;BME280;18221;38.704;0.152;2023-04-29T13:35:52;98401.13;;;34.15;21.37
10176;BME280;18221;38.704;0.152;2023-04-29T13:38:21;98389.06;;;34.25;21.41
10176;BME280;18221;38.704;0.152;2023-04-29T13:40:51;98390.88;;;34.43;21.82
10176;BME280;18221;38.704;0.152;2023-04-29T13:43:19;98393.00;;;34.46;21.95
10176;BME280;18221;38.704;0.152;2023-04-29T13:45:48;98393.41;;;34.53;21.94
10176;BME280;18221;38.704;0.152;2023-04-29T13:48:17;98390.56;;;34.44;23.01
10176;BME280;18221;38.704;0.152;2023-04-29T13:50:46;98386.47;;;34.42;23.58
10176;BME280;18221;38.704;0.152;2023-04-29T13:53:15;98385.97;;;34.40;22.09
10176;BME280;18221;38.704;0.152;2023-04-29T13:55:44;98397.78;;;34.54;22.89